Time;durP1;ratioP1;P1;durP2;ratioP2;P2;SDS_P1;SDS_P2;PMS_P1;PMS_P2;Temp;Humidity;BMP_temperature;BMP_pressure;BME280_temperature;BME280_humidity;BME280_pressure;Samples;Min_cycle;Max_cycle;Signal;HPM_P1;HPM_P2
2021/11/23 00:00:43;;;;;;;9.17;5.07;;;;;;;4.14;81.84;102076.91;5041203;28;20241;-74
2021/11/23 00:03:11;;;;;;;7.60;4.07;;;;;;;4.16;81.93;102074.25;5059392;28;20209;-73
2021/11/23 00:05:38;;;;;;;6.43;4.27;;;;;;;4.17;82.01;102068.97;5049067;28;20666;-73
2021/11/23 00:08:05;;;;;;;5.03;4.53;;;;;;;4.17;81.63;102071.59;5049515;28;20458;-73
2021/11/23 00:10:32;;;;;;;6.00;4.47;;;;;;;4.18;82.16;102070.69;5048326;28;20237;-73
2021/11/23 00:12:58;;;;;;;6.67;4.63;;;;;;;4.21;81.68;102072.44;5048932;28;20216;-73
2021/11/23 00:15:25;;;;;;;6.83;4.50;;;;;;;4.21;81.79;102068.91;5055817;28;20213;-74
2021/11/23 00:17:51;;;;;;;10.27;4.83;;;;;;;4.22;81.68;102068.03;5049289;28;20221;-73
2021/11/23 00:20:20;;;;;;;5.97;4.13;;;;;;;4.25;81.54;102075.91;5049756;28;20726;-73
2021/11/23 00:22:46;;;;;;;7.43;4.57;;;;;;;4.24;81.40;102080.31;5049005;28;20205;-73
2021/11/23 00:25:13;;;;;;;5.37;3.60;;;;;;;4.27;82.00;102076.75;5049065;28;20670;-73
2021/11/23 00:27:39;;;;;;;8.47;4.80;;;;;;;4.27;81.61;102074.13;5051285;28;20197;-74
2021/11/23 00:30:07;;;;;;;6.93;4.40;;;;;;;4.27;81.99;102080.25;5057494;28;20229;-73
2021/11/23 00:32:33;;;;;;;7.10;4.70;;;;;;;4.28;81.67;102083.78;5049300;28;20210;-72
2021/11/23 00:35:00;;;;;;;8.80;4.20;;;;;;;4.29;81.31;102075.84;5065910;28;20205;-73
2021/11/23 00:37:28;;;;;;;6.20;3.93;;;;;;;4.30;81.76;102076.72;5057292;28;20260;-73
2021/11/23 00:39:57;;;;;;;5.93;4.10;;;;;;;4.30;81.56;102061.72;5056522;28;20232;-73
2021/11/23 00:42:24;;;;;;;5.87;4.50;;;;;;;4.30;81.67;102061.72;5052859;28;20214;-72
2021/11/23 00:44:51;;;;;;;5.83;4.17;;;;;;;4.30;81.67;102060.88;5048756;28;20210;-74
2021/11/23 00:47:17;;;;;;;8.23;4.20;;;;;;;4.29;81.50;102054.75;5055718;28;20249;-73
2021/11/23 00:49:44;;;;;;;5.90;3.87;;;;;;;4.29;81.09;102053.88;5054879;28;20212;-73
2021/11/23 00:52:12;;;;;;;6.53;3.83;;;;;;;4.30;81.11;102050.34;5052898;28;20304;-73
2021/11/23 00:54:40;;;;;;;6.03;4.27;;;;;;;4.29;80.80;102048.59;5052112;28;20267;-74
2021/11/23 00:57:06;;;;;;;6.03;4.20;;;;;;;4.27;81.37;102037.19;5053201;28;20205;-73
2021/11/23 00:59:36;;;;;;;5.40;3.53;;;;;;;4.26;80.75;102027.53;5053066;28;20240;-73
2021/11/23 01:02:03;;;;;;;5.33;3.67;;;;;;;4.24;80.83;102021.41;5060780;28;20319;-72
2021/11/23 01:04:30;;;;;;;6.90;3.80;;;;;;;4.22;81.27;102010.88;5052409;28;20679;-74
2021/11/23 01:06:56;;;;;;;7.23;4.17;;;;;;;4.21;80.79;102009.16;5052435;28;20216;-74
2021/11/23 01:09:23;;;;;;;4.97;3.77;;;;;;;4.20;80.82;102010.03;5047123;28;20559;-74
2021/11/23 01:11:51;;;;;;;8.03;3.63;;;;;;;4.18;81.17;102012.69;5058011;28;20741;-72
2021/11/23 01:14:17;;;;;;;7.20;3.37;;;;;;;4.17;80.71;101994.25;5040347;28;20588;-73
2021/11/23 01:16:48;;;;;;;6.57;4.20;;;;;;;4.16;80.96;101988.13;5052273;28;20202;-73
2021/11/23 01:19:15;;;;;;;7.37;4.47;;;;;;;4.15;80.52;101974.94;5049762;28;20233;-73
2021/11/23 01:21:42;;;;;;;7.23;3.67;;;;;;;4.15;80.56;101964.41;5052080;28;20732;-73
2021/11/23 01:24:09;;;;;;;5.47;4.63;;;;;;;4.14;80.98;101976.72;5051538;28;20706;-74
2021/11/23 01:26:36;;;;;;;7.73;4.13;;;;;;;4.11;80.43;101982.06;5057517;28;20212;-73
2021/11/23 01:29:04;;;;;;;8.63;4.70;;;;;;;4.08;80.14;101982.09;5051879;28;20198;-73
2021/11/23 01:31:30;;;;;;;8.07;5.07;;;;;;;4.06;80.55;101994.44;5053545;28;20245;-73
2021/11/23 01:33:57;;;;;;;5.27;4.57;;;;;;;4.04;80.57;102000.63;5051173;28;20209;-73
2021/11/23 01:36:24;;;;;;;7.47;5.27;;;;;;;4.01;80.75;101996.25;5052302;28;20209;-73
2021/11/23 01:38:50;;;;;;;8.70;5.73;;;;;;;4.00;80.43;102001.56;5054215;28;20771;-74
2021/11/23 01:41:17;;;;;;;8.83;5.37;;;;;;;3.98;80.58;102011.25;5051435;28;20237;-73
2021/11/23 01:43:44;;;;;;;11.00;5.73;;;;;;;3.97;81.21;102012.13;5053111;28;20215;-74
2021/11/23 01:46:12;;;;;;;10.83;6.23;;;;;;;3.95;80.57;102012.16;5053830;28;20205;-74
2021/11/23 01:48:38;;;;;;;10.83;6.83;;;;;;;3.93;80.60;102005.19;5051771;28;20693;-73
2021/11/23 01:51:05;;;;;;;7.83;6.77;;;;;;;3.94;80.88;102014.84;5053359;28;20240;-73
2021/11/23 01:53:32;;;;;;;10.00;6.37;;;;;;;3.91;80.95;102025.41;5052480;28;20659;-73
2021/11/23 01:55:59;;;;;;;8.50;6.50;;;;;;;3.90;80.88;102015.78;5051508;28;20701;-73
2021/11/23 01:58:25;;;;;;;10.30;7.00;;;;;;;3.88;80.85;102022.81;5056144;28;20717;-73
2021/11/23 02:00:52;;;;;;;10.93;7.47;;;;;;;3.86;80.69;102014.06;5056356;28;20234;-73
2021/11/23 02:03:20;;;;;;;11.17;7.00;;;;;;;3.82;80.57;102007.94;5052239;28;20208;-73
2021/11/23 02:05:47;;;;;;;9.57;7.07;;;;;;;3.81;81.25;102001.81;5053110;28;20214;-74
2021/11/23 02:08:14;;;;;;;9.43;6.70;;;;;;;3.78;80.64;101999.22;5053605;28;20278;-74
2021/11/23 02:10:41;;;;;;;10.63;7.73;;;;;;;3.75;80.90;101996.66;5050766;28;20260;-74
2021/11/23 02:13:08;;;;;;;11.97;7.47;;;;;;;3.72;81.28;102007.22;5052582;28;20209;-74
2021/11/23 02:15:34;;;;;;;10.53;7.80;;;;;;;3.70;81.33;102013.41;5058782;28;20216;-74
2021/11/23 02:18:13;;;;;;;9.37;8.00;;;;;;;3.66;81.74;102009.06;5050626;28;20217;-74
2021/11/23 02:20:42;;;;;;;11.63;7.83;;;;;;;3.66;81.68;102006.41;5050493;28;20241;-74
2021/11/23 02:23:08;;;;;;;12.03;8.37;;;;;;;3.66;80.83;102009.06;5049804;28;20220;-74
2021/11/23 02:25:35;;;;;;;11.43;7.93;;;;;;;3.66;81.91;102006.41;5051618;28;20217;-75
2021/11/23 02:28:06;;;;;;;11.87;8.23;;;;;;;3.64;81.72;101998.53;5050941;28;20587;-74
2021/11/23 02:30:36;;;;;;;11.30;7.53;;;;;;;3.67;81.05;101997.63;5050879;28;20230;-74
2021/11/23 02:33:03;;;;;;;9.33;7.87;;;;;;;3.68;81.95;101994.09;5051419;28;20205;-74
2021/11/23 02:35:29;;;;;;;10.27;8.00;;;;;;;3.69;81.47;101987.94;5050887;28;20578;-74
2021/11/23 02:37:58;;;;;;;12.27;7.60;;;;;;;3.69;81.58;101983.53;5058438;28;20682;-75
2021/11/23 02:40:25;;;;;;;8.80;6.70;;;;;;;3.70;82.10;101979.16;5052971;28;20221;-74
2021/11/23 02:42:53;;;;;;;10.23;6.70;;;;;;;3.73;81.56;101979.13;5049318;28;20717;-74
2021/11/23 02:45:21;;;;;;;9.40;6.70;;;;;;;3.76;81.97;101985.19;5050892;28;20197;-74
2021/11/23 02:47:48;;;;;;;12.57;7.60;;;;;;;3.78;81.61;101983.41;5057087;28;20259;-74
2021/11/23 02:50:16;;;;;;;10.60;7.33;;;;;;;3.79;82.27;101979.00;5050031;28;20245;-74
2021/11/23 02:52:44;;;;;;;11.07;7.00;;;;;;;3.83;82.26;101983.34;5050414;28;20217;-74
2021/11/23 02:55:12;;;;;;;10.23;6.30;;;;;;;3.84;82.33;101979.81;5050136;28;20725;-74
2021/11/23 02:57:39;;;;;;;10.50;7.20;;;;;;;3.86;82.37;101985.94;5060992;28;20211;-75
2021/11/23 03:00:09;;;;;;;8.07;6.50;;;;;;;3.89;81.82;101987.66;5062179;28;20275;-75
2021/11/23 03:02:35;;;;;;;10.83;6.97;;;;;;;3.91;82.35;101989.41;5050007;28;20667;-74
2021/11/23 03:05:03;;;;;;;10.10;6.97;;;;;;;3.94;82.31;101980.56;5056310;28;20201;-75
2021/11/23 03:07:30;;;;;;;10.97;7.47;;;;;;;3.98;82.50;101987.53;5050526;28;20209;-74
2021/11/23 03:09:57;;;;;;;15.93;7.60;;;;;;;3.99;82.13;101987.50;5050491;28;20221;-74
2021/11/23 03:12:26;;;;;;;12.70;7.77;;;;;;;4.00;82.17;101983.97;5056812;28;20202;-74
2021/11/23 03:14:53;;;;;;;9.37;6.70;;;;;;;4.02;82.15;101984.81;5056562;28;20204;-74
2021/11/23 03:17:21;;;;;;;12.63;7.47;;;;;;;4.05;82.47;101990.06;5050916;28;20213;-75
2021/11/23 03:19:49;;;;;;;10.10;6.83;;;;;;;4.06;82.63;101983.88;5062377;28;20241;-74
2021/11/23 03:22:16;;;;;;;14.53;7.50;;;;;;;4.07;82.48;101985.63;5051532;28;20259;-74
2021/11/23 03:24:43;;;;;;;10.73;7.50;;;;;;;4.09;82.43;101980.34;5049340;28;20210;-75
2021/11/23 03:27:11;;;;;;;9.47;7.23;;;;;;;4.13;82.27;101979.38;5050146;28;20210;-76
2021/11/23 03:29:40;;;;;;;9.90;6.60;;;;;;;4.14;82.55;101987.25;5058251;28;20728;-74
2021/11/23 03:32:09;;;;;;;9.73;7.27;;;;;;;4.17;82.34;101987.22;5049669;28;20312;-73
2021/11/23 03:34:38;;;;;;;9.63;6.93;;;;;;;4.19;82.46;101995.09;5048164;28;20209;-73
2021/11/23 03:37:05;;;;;;;10.00;7.10;;;;;;;4.22;82.36;101984.50;5048008;28;20198;-73
2021/11/23 03:39:32;;;;;;;15.73;8.80;;;;;;;4.24;82.94;101987.13;5048187;28;20237;-73
2021/11/23 03:41:58;;;;;;;8.67;6.70;;;;;;;4.26;82.51;101985.34;5053801;28;20585;-74
2021/11/23 03:44:26;;;;;;;13.87;6.43;;;;;;;4.30;82.62;101976.50;5049463;28;20197;-74
2021/11/23 03:46:54;;;;;;;13.47;6.57;;;;;;;4.31;82.96;101975.56;5050764;28;20212;-74
2021/11/23 03:49:21;;;;;;;12.23;7.73;;;;;;;4.32;82.67;101972.03;5059452;28;20582;-74
2021/11/23 03:51:47;;;;;;;12.33;7.80;;;;;;;4.33;83.30;101969.38;5072299;22;20237;-74
2021/11/23 03:54:14;;;;;;;10.53;7.53;;;;;;;4.33;83.11;101965.88;5036940;28;20220;-76
2021/11/23 03:56:41;;;;;;;13.10;7.10;;;;;;;4.34;83.17;101964.97;5037154;28;20213;-74
2021/11/23 03:59:08;;;;;;;11.23;7.10;;;;;;;4.35;82.99;101966.72;5059109;28;20225;-74
2021/11/23 04:01:34;;;;;;;10.63;6.90;;;;;;;4.34;82.97;101968.47;5049466;28;20245;-76
2021/11/23 04:04:03;;;;;;;13.93;7.73;;;;;;;4.35;83.03;101969.34;5062794;28;20692;-76
2021/11/23 04:06:29;;;;;;;12.20;7.30;;;;;;;4.37;83.51;101975.47;5050015;28;20214;-74
2021/11/23 04:08:56;;;;;;;9.70;6.90;;;;;;;4.37;83.07;101968.44;5059654;28;20205;-76
2021/11/23 04:11:22;;;;;;;13.50;7.67;;;;;;;4.38;83.68;101964.03;5054021;28;20576;-75
2021/11/23 04:13:49;;;;;;;9.17;6.83;;;;;;;4.38;83.50;101964.91;5052820;28;20702;-74
2021/11/23 04:16:17;;;;;;;13.97;8.53;;;;;;;4.38;83.26;101964.03;5065076;28;20671;-74
2021/11/23 04:18:43;;;;;;;11.60;8.07;;;;;;;4.39;83.38;101965.78;5054066;28;20260;-75
2021/11/23 04:21:11;;;;;;;14.87;7.93;;;;;;;4.36;83.58;101965.81;5048540;28;20269;-76
2021/11/23 04:23:38;;;;;;;9.57;8.07;;;;;;;4.36;83.77;101965.81;5045033;28;20403;-74
2021/11/23 04:26:06;;;;;;;11.17;7.80;;;;;;;4.35;83.56;101966.72;5040287;28;20210;-76
2021/11/23 04:28:32;;;;;;;13.03;8.23;;;;;;;4.35;84.33;101961.44;5059202;28;20713;-74
2021/11/23 04:30:59;;;;;;;12.23;9.10;;;;;;;4.36;84.11;101960.53;5057355;28;20252;-75
2021/11/23 04:33:26;;;;;;;12.67;7.53;;;;;;;4.36;83.80;101960.53;5055677;28;20216;-76
2021/11/23 04:35:52;;;;;;;9.30;7.80;;;;;;;4.36;84.29;101968.47;5055900;28;20209;-76
2021/11/23 04:38:21;;;;;;;14.13;8.87;;;;;;;4.35;84.18;101964.94;5052327;28;20220;-76
2021/11/23 04:40:47;;;;;;;14.10;8.57;;;;;;;4.36;84.15;101971.09;5053146;28;20236;-74
2021/11/23 04:43:14;;;;;;;14.17;9.97;;;;;;;4.36;84.84;101964.06;5052403;28;20651;-75
2021/11/23 04:45:41;;;;;;;12.10;8.70;;;;;;;4.37;84.31;101967.56;5054074;28;20797;-76
2021/11/23 04:48:08;;;;;;;13.73;9.03;;;;;;;4.35;84.98;101967.59;5050810;28;20213;-76
2021/11/23 04:50:35;;;;;;;13.57;8.60;;;;;;;4.36;85.31;101966.69;5054089;28;20232;-76
2021/11/23 04:53:03;;;;;;;11.27;9.93;;;;;;;4.34;84.82;101965.84;5051356;28;20226;-77
2021/11/23 04:55:31;;;;;;;13.83;9.63;;;;;;;4.32;85.31;101956.22;5051373;28;20204;-76
2021/11/23 04:57:58;;;;;;;14.63;9.63;;;;;;;4.31;85.28;101957.97;5059155;28;20205;-76
2021/11/23 05:00:24;;;;;;;13.40;9.33;;;;;;;4.32;85.26;101958.84;5056063;28;20238;-76
2021/11/23 05:02:51;;;;;;;12.20;8.97;;;;;;;4.31;85.92;101949.19;5057446;28;20206;-76
2021/11/23 05:05:17;;;;;;;13.47;9.10;;;;;;;4.33;85.71;101942.13;5051503;28;20206;-76
2021/11/23 05:07:45;;;;;;;13.30;9.20;;;;;;;4.32;86.23;101941.25;5056709;28;20198;-76
2021/11/23 05:10:13;;;;;;;12.10;9.27;;;;;;;4.30;86.33;101944.84;5051129;28;20806;-76
2021/11/23 05:12:41;;;;;;;13.00;9.27;;;;;;;4.30;86.54;101940.41;5051977;28;20678;-76
2021/11/23 05:15:09;;;;;;;16.97;10.27;;;;;;;4.28;87.07;101933.44;5057717;28;20197;-77
2021/11/23 05:17:36;;;;;;;14.83;8.73;;;;;;;4.25;87.31;101933.50;5046865;28;20212;-76
2021/11/23 05:20:04;;;;;;;13.20;8.53;;;;;;;4.23;86.74;101930.00;5051763;28;20229;-77
2021/11/23 05:22:31;;;;;;;12.57;8.63;;;;;;;4.25;87.46;101941.41;5047884;28;20205;-76
2021/11/23 05:24:57;;;;;;;12.30;8.70;;;;;;;4.24;87.57;101940.53;5053752;28;20201;-76
2021/11/23 05:27:24;;;;;;;9.50;8.30;;;;;;;4.26;87.83;101941.38;5049133;28;20868;-76
2021/11/23 05:29:53;;;;;;;10.53;8.50;;;;;;;4.27;87.99;101939.63;5047126;28;20293;-76
2021/11/23 05:32:19;;;;;;;12.70;8.70;;;;;;;4.27;87.99;101934.34;5049756;28;20292;-76
2021/11/23 05:34:46;;;;;;;13.83;8.67;;;;;;;4.27;87.50;101943.13;5043825;28;20205;-76
2021/11/23 05:37:12;;;;;;;11.30;8.87;;;;;;;4.29;88.25;101943.97;5046954;28;20201;-75
2021/11/23 05:39:39;;;;;;;12.97;8.83;;;;;;;4.30;87.93;101945.69;5048652;28;20725;-74
2021/11/23 05:42:06;;;;;;;12.47;8.53;;;;;;;4.33;88.07;101939.50;5050451;28;20232;-76
2021/11/23 05:44:32;;;;;;;11.83;8.77;;;;;;;4.32;88.48;101940.38;5046312;28;20205;-76
2021/11/23 05:47:00;;;;;;;11.83;8.27;;;;;;;4.33;88.01;101935.09;5045501;28;20577;-76
2021/11/23 05:49:27;;;;;;;11.67;8.77;;;;;;;4.33;88.29;101936.84;5049443;28;20205;-77
2021/11/23 05:51:55;;;;;;;13.70;9.13;;;;;;;4.34;88.20;101935.97;5052339;28;20230;-76
2021/11/23 05:54:21;;;;;;;12.53;9.20;;;;;;;4.34;88.24;101935.97;5041915;28;20210;-76
2021/11/23 05:56:48;;;;;;;11.23;9.03;;;;;;;4.34;89.33;101936.84;5045228;28;20213;-76
2021/11/23 05:59:17;;;;;;;11.27;8.33;;;;;;;4.34;88.89;101935.97;5043079;28;20210;-76
2021/11/23 06:01:43;;;;;;;10.63;8.07;;;;;;;4.35;89.31;101940.34;5045240;28;20229;-77
2021/11/23 06:04:12;;;;;;;12.43;8.20;;;;;;;4.36;89.22;101944.72;5043931;28;20202;-76
2021/11/23 06:06:38;;;;;;;11.80;8.60;;;;;;;4.36;88.78;101934.19;5045914;28;20296;-76
2021/11/23 06:09:06;;;;;;;11.20;8.00;;;;;;;4.38;89.17;101933.25;5043310;28;20686;-77
2021/11/23 06:11:32;;;;;;;10.67;8.20;;;;;;;4.40;89.44;101946.41;5043685;28;20221;-76
2021/11/23 06:14:01;;;;;;;12.13;9.03;;;;;;;4.40;89.04;101946.41;5045445;28;20200;-76
2021/11/23 06:16:29;;;;;;;11.10;9.07;;;;;;;4.41;89.28;101946.41;5046908;28;20709;-76
2021/11/23 06:18:56;;;;;;;10.87;8.27;;;;;;;4.42;89.26;101944.63;5046279;28;20205;-76
2021/11/23 06:21:25;;;;;;;12.60;9.17;;;;;;;4.42;89.69;101949.91;5049081;28;20225;-76
2021/11/23 06:23:52;;;;;;;11.30;8.53;;;;;;;4.43;89.25;101952.53;5049403;28;20206;-79
2021/11/23 06:26:19;;;;;;;10.20;8.70;;;;;;;4.45;89.34;101960.41;5065920;28;20194;-82
2021/11/23 06:28:46;;;;;;;10.63;8.30;;;;;;;4.46;89.54;101962.16;5070480;28;20205;-81
2021/11/23 06:31:13;;;;;;;10.63;8.20;;;;;;;4.46;89.62;101973.56;5057941;28;20297;-78
2021/11/23 06:33:39;;;;;;;12.07;9.70;;;;;;;4.46;89.75;101975.34;5052673;28;20201;-78
2021/11/23 06:36:06;;;;;;;11.63;8.83;;;;;;;4.47;89.81;101972.69;5051994;28;20201;-78
2021/11/23 06:38:34;;;;;;;12.63;8.90;;;;;;;4.49;89.97;101977.91;5053600;28;20206;-78
2021/11/23 06:41:00;;;;;;;9.70;8.10;;;;;;;4.52;89.50;101977.84;5051679;28;20244;-79
2021/11/23 06:43:27;;;;;;;11.03;8.90;;;;;;;4.51;89.51;101984.03;5053200;28;20205;-78
2021/11/23 06:45:55;;;;;;;10.40;8.53;;;;;;;4.50;89.43;101977.88;5051747;28;20198;-77
2021/11/23 06:48:21;;;;;;;11.33;8.97;;;;;;;4.51;90.02;101986.66;5050162;28;20213;-78
2021/11/23 06:50:48;;;;;;;12.53;9.30;;;;;;;4.53;90.02;101990.16;5050086;28;20237;-77
2021/11/23 06:53:14;;;;;;;10.10;8.53;;;;;;;4.53;89.71;101993.66;5051603;28;20205;-78
2021/11/23 06:55:43;;;;;;;11.70;9.67;;;;;;;4.55;90.06;102001.56;5051112;28;20202;-78
2021/11/23 06:58:10;;;;;;;10.97;9.23;;;;;;;4.55;89.74;101998.91;5049492;28;20209;-78
2021/11/23 07:00:36;;;;;;;11.70;9.57;;;;;;;4.56;89.73;102000.66;5049824;28;21335;-77
2021/11/23 07:03:03;;;;;;;12.87;10.10;;;;;;;4.58;89.58;102006.78;5046282;28;20197;-78
2021/11/23 07:05:29;;;;;;;13.23;10.03;;;;;;;4.59;89.66;102008.53;5049641;28;20204;-77
2021/11/23 07:07:57;;;;;;;12.93;9.97;;;;;;;4.61;89.91;102013.78;5048876;28;20284;-77
2021/11/23 07:10:24;;;;;;;15.70;11.17;;;;;;;4.61;90.11;102012.00;5050123;28;20723;-79
2021/11/23 07:12:52;;;;;;;13.40;11.27;;;;;;;4.61;89.76;102009.38;5050550;28;20224;-79
2021/11/23 07:15:19;;;;;;;13.93;10.97;;;;;;;4.62;90.17;102021.66;5049765;28;20259;-79
2021/11/23 07:17:46;;;;;;;13.27;10.73;;;;;;;4.63;90.25;102018.13;5050563;28;20216;-79
2021/11/23 07:20:12;;;;;;;13.47;10.60;;;;;;;4.65;90.02;102021.63;5049915;28;20225;-79
2021/11/23 07:22:39;;;;;;;16.30;11.50;;;;;;;4.66;89.70;102031.25;5050263;28;20213;-80
2021/11/23 07:25:06;;;;;;;15.13;12.57;;;;;;;4.66;89.70;102031.25;5053422;28;20197;-79
2021/11/23 07:27:33;;;;;;;15.87;12.53;;;;;;;4.66;90.04;102028.63;5050486;28;20240;-78
2021/11/23 07:30:01;;;;;;;12.30;10.97;;;;;;;4.67;89.94;102029.47;5050479;28;20663;-79
2021/11/23 07:32:27;;;;;;;13.70;11.43;;;;;;;4.67;90.11;102040.03;5048085;28;20207;-79
2021/11/23 07:34:54;;;;;;;16.37;11.13;;;;;;;4.68;89.87;102037.38;5050693;28;20205;-78
2021/11/23 07:37:21;;;;;;;20.00;12.57;;;;;;;4.66;90.15;102033.88;5053010;28;20666;-78
2021/11/23 07:39:47;;;;;;;17.47;11.67;;;;;;;4.66;90.20;102047.09;5050160;28;20210;-79
2021/11/23 07:42:14;;;;;;;11.97;10.53;;;;;;;4.68;89.89;102041.78;5052995;28;20229;-79
2021/11/23 07:44:40;;;;;;;15.93;11.20;;;;;;;4.69;90.29;102048.81;5051520;28;20216;-79
2021/11/23 07:47:09;;;;;;;15.60;11.23;;;;;;;4.71;89.84;102047.00;5054363;28;20209;-80
2021/11/23 07:49:35;;;;;;;16.20;12.17;;;;;;;4.71;90.08;102050.53;5055540;28;20671;-79
2021/11/23 07:52:02;;;;;;;16.87;12.27;;;;;;;4.72;90.00;102054.91;5056266;28;20702;-79
2021/11/23 07:54:28;;;;;;;14.17;11.30;;;;;;;4.73;90.43;102051.38;5054792;28;20204;-79
2021/11/23 07:56:55;;;;;;;18.00;12.97;;;;;;;4.75;90.46;102052.22;5055686;28;20206;-79
2021/11/23 07:59:22;;;;;;;14.77;11.90;;;;;;;4.76;90.27;102053.09;5054980;28;20205;-79
2021/11/23 08:01:48;;;;;;;15.40;11.53;;;;;;;4.78;90.44;102060.09;5052271;28;20235;-79
2021/11/23 08:04:16;;;;;;;13.63;12.10;;;;;;;4.79;90.36;102067.13;5055117;28;20273;-79
2021/11/23 08:06:43;;;;;;;16.23;12.00;;;;;;;4.80;90.39;102066.22;5054601;28;20205;-79
2021/11/23 08:09:10;;;;;;;14.33;10.83;;;;;;;4.82;90.89;102069.72;5054819;28;20655;-78
2021/11/23 08:11:36;;;;;;;13.27;10.90;;;;;;;4.82;90.49;102066.19;5054688;28;20275;-79
2021/11/23 08:14:03;;;;;;;14.30;10.70;;;;;;;4.84;90.34;102064.38;5052263;28;20206;-79
2021/11/23 08:16:30;;;;;;;14.47;11.57;;;;;;;4.85;90.85;102074.91;5055721;28;20674;-79
2021/11/23 08:18:56;;;;;;;16.67;12.13;;;;;;;4.86;90.77;102074.00;5057324;28;20209;-79
2021/11/23 08:21:29;;;;;;;14.00;10.87;;;;;;;4.87;90.78;102070.47;5053657;28;20232;-79
2021/11/23 08:23:55;;;;;;;17.13;11.63;;;;;;;4.89;90.98;102073.09;5055320;28;20202;-79
2021/11/23 08:26:23;;;;;;;15.90;11.03;;;;;;;4.93;90.81;102071.28;5056960;28;20272;-79
2021/11/23 08:28:50;;;;;;;14.73;11.37;;;;;;;4.95;91.07;102073.00;5054460;28;20206;-79
2021/11/23 08:31:17;;;;;;;14.60;10.90;;;;;;;4.98;91.13;102078.22;5054019;28;20229;-79
2021/11/23 08:33:43;;;;;;;16.53;11.23;;;;;;;4.97;91.18;102075.63;5055797;28;20552;-79
2021/11/23 08:36:10;;;;;;;14.10;11.40;;;;;;;4.98;91.18;102077.38;5055399;28;20197;-79
2021/11/23 08:38:38;;;;;;;19.77;11.80;;;;;;;4.99;91.00;102074.69;5053323;28;20208;-79
2021/11/23 08:41:05;;;;;;;15.80;11.93;;;;;;;5.02;90.69;102085.19;5052211;28;20236;-79
2021/11/23 08:43:32;;;;;;;15.27;11.17;;;;;;;5.03;90.91;102084.28;5056205;28;20213;-79
2021/11/23 08:45:59;;;;;;;17.37;11.80;;;;;;;5.05;90.85;102087.78;5054712;28;20202;-79
2021/11/23 08:48:25;;;;;;;16.00;12.40;;;;;;;5.06;91.25;102088.66;5062834;28;20208;-80
2021/11/23 08:50:52;;;;;;;17.63;12.53;;;;;;;5.07;91.43;102091.25;5054079;28;20589;-79
2021/11/23 08:53:19;;;;;;;18.20;11.70;;;;;;;5.10;91.22;102088.56;5053756;28;20206;-79
2021/11/23 08:55:47;;;;;;;17.27;11.33;;;;;;;5.12;91.13;102089.41;5055788;28;20216;-79
2021/11/23 08:58:14;;;;;;;15.17;11.03;;;;;;;5.12;91.10;102085.91;5056010;28;20209;-79
2021/11/23 09:00:41;;;;;;;15.00;10.90;;;;;;;5.15;91.23;102084.09;5066761;28;20225;-80
2021/11/23 09:03:08;;;;;;;14.43;9.67;;;;;;;5.16;91.54;102091.13;5054711;28;20213;-79
2021/11/23 09:05:36;;;;;;;17.17;11.93;;;;;;;5.18;91.40;102096.38;5054946;28;20209;-78
2021/11/23 09:08:04;;;;;;;14.67;10.60;;;;;;;5.23;91.00;102099.78;5055356;28;20210;-79
2021/11/23 09:10:35;;;;;;;16.50;10.60;;;;;;;5.26;91.90;102094.44;5054897;28;20724;-77
2021/11/23 09:13:04;;;;;;;15.60;11.10;;;;;;;5.30;91.72;102098.78;5051556;28;20212;-80
2021/11/23 09:15:31;;;;;;;17.10;11.17;;;;;;;5.33;91.55;102096.09;5057149;28;20326;-79
2021/11/23 09:18:01;;;;;;;15.30;10.53;;;;;;;5.35;91.48;102094.28;5050808;28;20213;-79
2021/11/23 09:20:33;;;;;;;13.33;9.90;;;;;;;5.39;91.92;102095.94;5054802;28;20239;-79
2021/11/23 09:23:01;;;;;;;16.97;10.73;;;;;;;5.42;91.83;102100.31;5051767;28;20202;-80
2021/11/23 09:25:27;;;;;;;16.83;10.73;;;;;;;5.45;91.79;102100.25;5052429;28;20217;-79
2021/11/23 09:27:55;;;;;;;15.93;9.90;;;;;;;5.48;91.67;102097.56;5055266;28;20205;-80
2021/11/23 09:30:23;;;;;;;17.80;11.47;;;;;;;5.50;91.58;102107.19;5055363;28;20279;-80
2021/11/23 09:32:50;;;;;;;16.73;10.80;;;;;;;5.52;91.84;102104.53;5055108;28;20671;-79
2021/11/23 09:35:17;;;;;;;17.80;10.83;;;;;;;5.54;91.69;102102.72;5053233;28;20760;-80
2021/11/23 09:37:44;;;;;;;18.27;10.30;;;;;;;5.55;91.91;102107.97;5055279;28;20202;-79
2021/11/23 09:40:11;;;;;;;16.73;10.47;;;;;;;5.57;91.78;102100.88;5053124;28;20197;-79
2021/11/23 09:42:38;;;;;;;18.60;10.77;;;;;;;5.61;91.81;102106.09;5053997;28;20327;-80
2021/11/23 09:45:06;;;;;;;17.17;9.97;;;;;;;5.62;91.51;102108.72;5055528;28;20671;-80
2021/11/23 09:47:34;;;;;;;16.87;11.00;;;;;;;5.62;91.88;102108.72;5056655;28;20209;-79
2021/11/23 09:50:02;;;;;;;16.37;10.20;;;;;;;5.64;92.05;102114.84;5055404;28;20491;-78
2021/11/23 09:52:29;;;;;;;17.30;11.50;;;;;;;5.65;91.92;102111.31;5044263;22;20238;-74
2021/11/23 09:54:56;;;;;;;18.13;10.33;;;;;;;5.68;91.94;102113.03;5005676;28;20225;-71
2021/11/23 09:57:22;;;;;;;20.87;12.77;;;;;;;5.70;92.00;102116.53;5011406;28;20636;-72
2021/11/23 09:59:49;;;;;;;39.87;18.97;;;;;;;5.70;91.95;102104.19;5007127;28;20213;-74
2021/11/23 10:02:24;;;;;;;26.27;12.70;;;;;;;5.74;92.20;102105.81;5005293;28;20237;-71
2021/11/23 10:05:00;;;;;;;25.67;13.97;;;;;;;5.76;92.02;102101.38;4993955;28;20682;-74
2021/11/23 10:07:36;;;;;;;20.50;12.63;;;;;;;5.80;92.32;102100.44;4994010;28;20203;-72
2021/11/23 10:10:11;;;;;;;17.37;11.47;;;;;;;5.82;92.10;102100.41;4982623;28;20200;-73
2021/11/23 10:12:38;;;;;;;26.87;13.40;;;;;;;5.85;92.32;102106.50;4989654;28;20237;-74
2021/11/23 10:15:14;;;;;;;43.83;13.20;;;;;;;5.90;91.99;102093.22;4977958;28;20243;-74
2021/11/23 10:17:42;;;;;;;24.53;11.40;;;;;;;5.93;92.01;102094.00;4980210;28;20248;-73
2021/11/23 10:23:27;;;;;;;19.67;13.83;;;;;;;6.02;92.30;102094.72;5072176;27;20543;-73
2021/11/23 10:25:56;;;;;;;24.73;16.17;;;;;;;6.03;92.53;102094.69;5059189;28;20223;-74
2021/11/23 10:28:26;;;;;;;23.47;13.97;;;;;;;6.06;92.00;102099.06;5065884;28;20205;-73
2021/11/23 10:30:52;;;;;;;20.83;12.07;;;;;;;6.06;92.41;102094.63;5056241;28;20595;-74
2021/11/23 10:33:20;;;;;;;22.37;16.13;;;;;;;6.07;92.32;102087.56;5052297;28;20210;-74
2021/11/23 10:35:50;;;;;;;17.10;11.60;;;;;;;6.09;92.60;102083.13;5078863;22;20264;-83
2021/11/23 10:38:17;;;;;;;22.07;14.73;;;;;;;6.10;92.48;102084.84;5057933;28;20274;-82
2021/11/23 10:40:48;;;;;;;18.03;12.80;;;;;;;6.10;92.41;102084.84;5065276;28;20291;-83
2021/11/23 10:43:18;;;;;;;22.53;15.40;;;;;;;6.12;92.33;102080.38;5068446;28;20205;-83
2021/11/23 10:45:47;;;;;;;14.80;9.70;;;;;;;6.14;92.64;102079.44;5068492;28;20711;-83
2021/11/23 10:48:18;;;;;;;21.00;10.67;;;;;;;6.16;92.09;102080.28;5064779;28;20221;-84
2021/11/23 10:50:59;;;;;;;37.97;27.40;;;;;;;6.15;92.35;102081.19;5067642;28;20227;-84
2021/11/23 10:53:26;;;;;;;19.33;14.17;;;;;;;6.16;92.36;102080.28;5061997;28;20206;-83
2021/11/23 10:55:54;;;;;;;16.77;10.93;;;;;;;6.18;92.04;102075.84;5059669;28;20205;-83
2021/11/23 10:58:21;;;;;;;16.00;11.33;;;;;;;6.19;92.02;102074.94;5065514;28;20780;-83
2021/11/23 11:00:49;;;;;;;18.93;12.43;;;;;;;6.24;91.97;102075.72;5067955;28;20211;-83
2021/11/23 11:03:17;;;;;;;18.50;13.33;;;;;;;6.26;91.98;102078.31;5053205;28;20217;-83
2021/11/23 11:05:44;;;;;;;15.03;10.43;;;;;;;6.27;91.80;102070.31;5060319;28;20214;-83
2021/11/23 11:08:12;;;;;;;16.00;11.03;;;;;;;6.27;91.84;102065.03;5048780;28;20233;-83
2021/11/23 11:10:39;;;;;;;15.23;9.03;;;;;;;6.30;91.82;102065.88;5060957;28;20228;-83
2021/11/23 11:13:11;;;;;;;14.87;9.70;;;;;;;6.31;92.23;102062.31;5059750;28;20217;-83
2021/11/23 11:15:41;;;;;;;14.33;9.67;;;;;;;6.30;91.98;102064.09;5053066;28;20308;-83
2021/11/23 11:18:11;;;;;;;14.23;8.90;;;;;;;6.31;91.81;102057.91;5060997;28;20565;-83
2021/11/23 11:20:41;;;;;;;13.70;8.83;;;;;;;6.34;92.25;102063.13;5062143;28;20237;-83
2021/11/23 11:23:10;;;;;;;14.97;9.30;;;;;;;6.34;91.69;102067.53;5056578;28;20235;-83
2021/11/23 11:25:58;;;;;;;13.43;9.27;;;;;;;6.33;91.88;102061.38;5061560;28;20589;-83
2021/11/23 11:28:44;;;;;;;10.73;8.70;;;;;;;6.34;91.42;102065.78;5065550;28;20229;-83